createdAt,value
2023-03-06T00:00:50.168Z,-2.62
2023-03-06T00:05:55.630Z,-2.61
2023-03-06T00:10:58.524Z,-2.76
2023-03-06T00:16:01.412Z,-2.72
2023-03-06T00:21:07.897Z,-2.65
2023-03-06T00:26:10.842Z,-2.76
2023-03-06T00:31:16.014Z,-2.51
2023-03-06T00:36:18.659Z,-2.39
2023-03-06T00:41:21.580Z,-2.30
2023-03-06T00:46:24.266Z,-2.28
2023-03-06T00:51:26.992Z,-2.12
2023-03-06T00:56:30.242Z,-2.22
2023-03-06T01:01:33.770Z,-2.43
2023-03-06T01:06:36.524Z,-2.28
2023-03-06T01:11:39.271Z,-2.18
2023-03-06T01:16:41.984Z,-2.29
2023-03-06T01:21:45.225Z,-2.35
2023-03-06T01:26:47.972Z,-2.84
2023-03-06T01:31:50.683Z,-2.66
2023-03-06T01:36:53.271Z,-2.64
2023-03-06T01:41:55.881Z,-2.52
2023-03-06T01:46:58.619Z,-2.52
2023-03-06T01:52:12.323Z,-2.56
2023-03-06T01:57:23.432Z,-2.68
2023-03-06T02:02:26.683Z,-2.75
2023-03-06T02:07:30.010Z,-2.63
2023-03-06T02:12:33.003Z,-2.75
2023-03-06T02:17:35.999Z,-2.96
2023-03-06T02:22:59.924Z,-2.85
2023-03-06T02:28:02.963Z,-2.99
2023-03-06T02:33:06.513Z,-2.85
2023-03-06T02:38:12.205Z,-2.69
2023-03-06T02:43:18.983Z,-2.57
2023-03-06T02:48:21.976Z,-2.97
2023-03-06T02:53:24.837Z,-2.92
2023-03-06T02:58:27.570Z,-3.29
2023-03-06T03:03:30.293Z,-3.03
2023-03-06T03:08:34.888Z,-3.00
2023-03-06T03:13:39.113Z,-3.16
2023-03-06T03:18:48.043Z,-3.01
2023-03-06T03:23:53.960Z,-2.70
2023-03-06T03:28:56.774Z,-2.56
2023-03-06T03:34:00.388Z,-2.55
2023-03-06T03:39:05.595Z,-2.42
2023-03-06T03:44:09.225Z,-2.52
2023-03-06T03:49:12.296Z,-2.55
2023-03-06T03:54:15.334Z,-2.45
2023-03-06T03:59:21.299Z,-2.75
2023-03-06T04:04:35.362Z,-2.99
2023-03-06T04:09:38.930Z,-2.94
2023-03-06T04:14:42.355Z,-2.90
2023-03-06T04:19:45.233Z,-2.90
2023-03-06T04:24:50.147Z,-2.68
2023-03-06T04:29:56.515Z,-2.50
2023-03-06T04:34:59.657Z,-2.59
2023-03-06T04:40:09.513Z,-2.47
2023-03-06T04:45:12.312Z,-2.65
2023-03-06T04:50:16.126Z,-2.92
2023-03-06T04:55:19.885Z,-3.01
2023-03-06T05:00:24.751Z,-2.82
2023-03-06T05:05:28.129Z,-2.67
2023-03-06T05:10:30.783Z,-2.41
2023-03-06T05:15:34.117Z,-1.96
2023-03-06T05:20:36.793Z,-1.89
2023-03-06T05:25:40.626Z,-1.45
2023-03-06T05:30:43.302Z,-1.33
2023-03-06T05:35:47.549Z,-1.48
2023-03-06T05:40:50.263Z,-1.21
2023-03-06T05:46:04.250Z,-0.73
2023-03-06T05:51:06.961Z,-0.32
2023-03-06T05:56:10.075Z,-0.99
2023-03-06T06:01:15.659Z,-0.68
2023-03-06T06:06:18.491Z,-0.35
2023-03-06T06:11:21.245Z,-0.64
2023-03-06T06:16:23.849Z,-0.47
2023-03-06T06:21:26.449Z,-0.25
2023-03-06T06:26:29.256Z,0.08
2023-03-06T06:31:31.973Z,0.22
2023-03-06T06:36:34.808Z,0.48
2023-03-06T06:41:57.028Z,0.75
2023-03-06T06:52:24.813Z,0.64
2023-03-06T06:57:27.522Z,0.95
2023-03-06T07:02:30.190Z,1.15
2023-03-06T07:07:37.764Z,1.18
2023-03-06T07:12:40.464Z,1.38
2023-03-06T07:17:43.409Z,1.54
2023-03-06T07:22:51.385Z,1.34
2023-03-06T07:27:55.124Z,1.55
2023-03-06T07:32:58.990Z,0.68
2023-03-06T07:38:01.946Z,0.28
2023-03-06T07:43:18.408Z,0.63
2023-03-06T07:48:28.165Z,0.55
2023-03-06T07:53:30.935Z,1.03
2023-03-06T07:58:33.680Z,0.80
2023-03-06T08:03:36.527Z,0.70
2023-03-06T08:08:40.839Z,0.82
2023-03-06T08:13:43.713Z,1.19
2023-03-06T08:18:46.712Z,1.24
2023-03-06T08:23:50.042Z,1.27
2023-03-06T08:28:54.051Z,0.91
2023-03-06T08:33:58.674Z,0.37
2023-03-06T08:39:01.715Z,1.02
2023-03-06T08:44:05.258Z,1.52
2023-03-06T08:49:07.957Z,1.92
2023-03-06T08:54:13.005Z,2.22
2023-03-06T08:59:15.652Z,1.87
2023-03-06T09:04:18.442Z,1.98
2023-03-06T09:09:21.089Z,1.74
2023-03-06T09:14:23.735Z,2.12
2023-03-06T09:19:26.744Z,2.02
2023-03-06T09:24:29.379Z,1.82
2023-03-06T09:29:31.933Z,1.79
2023-03-06T09:34:34.566Z,2.50
2023-03-06T09:39:37.396Z,2.24
2023-03-06T09:44:41.605Z,2.07
2023-03-06T09:49:56.113Z,1.77
2023-03-06T09:54:58.805Z,2.23
2023-03-06T10:00:19.230Z,1.82
2023-03-06T10:05:26.331Z,1.81
2023-03-06T10:10:53.176Z,1.69
2023-03-06T10:16:06.634Z,0.84
2023-03-06T10:21:33.034Z,0.27
2023-03-06T10:26:45.708Z,0.80
2023-03-06T10:31:58.993Z,0.83
2023-03-06T10:37:15.366Z,0.47
2023-03-06T10:42:17.948Z,0.35
2023-03-06T10:47:35.735Z,0.71
2023-03-06T10:52:38.475Z,1.13
2023-03-06T10:57:41.094Z,1.72
2023-03-06T11:02:43.668Z,2.21
2023-03-06T11:07:57.816Z,1.85
2023-03-06T11:13:02.848Z,1.51
2023-03-06T11:18:08.130Z,1.83
2023-03-06T11:23:32.385Z,2.26
2023-03-06T11:28:40.994Z,1.88
2023-03-06T11:34:12.183Z,1.77
2023-03-06T11:39:41.862Z,1.62
2023-03-06T11:44:53.448Z,1.73
2023-03-06T11:50:02.514Z,1.80
2023-03-06T11:55:09.130Z,1.76
2023-03-06T12:00:22.566Z,1.74
2023-03-06T12:05:37.289Z,2.09
2023-03-06T12:10:51.742Z,2.18
2023-03-06T12:16:19.629Z,1.80
2023-03-06T12:22:14.544Z,1.84
2023-03-06T12:27:38.804Z,1.16
2023-03-06T12:33:07.376Z,1.21
2023-03-06T12:38:31.659Z,0.84
2023-03-06T12:44:05.012Z,0.72
2023-03-06T12:49:23.008Z,0.86
2023-03-06T12:54:37.365Z,1.04
2023-03-06T12:59:48.643Z,1.56
2023-03-06T13:05:00.357Z,1.15
2023-03-06T13:10:25.732Z,1.25
2023-03-06T13:15:37.338Z,0.62
2023-03-06T13:20:46.304Z,0.61
2023-03-06T13:25:50.459Z,0.42
2023-03-06T13:30:53.556Z,0.41
2023-03-06T13:35:58.638Z,0.22
2023-03-06T13:41:33.085Z,-0.14
2023-03-06T13:46:37.953Z,-0.19
2023-03-06T13:51:47.500Z,-0.36
2023-03-06T13:56:59.211Z,-0.69
2023-03-06T14:02:41.286Z,-0.76
2023-03-06T14:07:49.526Z,-1.06
2023-03-06T14:12:52.029Z,-1.06
2023-03-06T14:18:00.714Z,-0.95
2023-03-06T14:23:21.313Z,-0.65
2023-03-06T14:28:29.896Z,-1.06
2023-03-06T14:33:43.330Z,-1.25
2023-03-06T14:38:53.971Z,-1.63
2023-03-06T14:44:24.223Z,-1.69
2023-03-06T14:49:27.363Z,-1.75
2023-03-06T14:54:37.140Z,-1.68
2023-03-06T14:59:44.797Z,-1.70
2023-03-06T15:04:51.352Z,-1.69
2023-03-06T15:09:55.206Z,-1.85
2023-03-06T15:15:10.495Z,-1.77
2023-03-06T15:20:44.081Z,-1.71
2023-03-06T15:25:59.014Z,-1.79
2023-03-06T15:31:20.224Z,-1.59
2023-03-06T15:36:29.776Z,-1.44
2023-03-06T15:41:37.578Z,-1.59
2023-03-06T15:46:41.397Z,-1.64
2023-03-06T15:51:44.032Z,-1.71
2023-03-06T15:56:49.174Z,-1.56
2023-03-06T16:01:53.023Z,-1.68
2023-03-06T16:06:55.677Z,-2.03
2023-03-06T16:11:58.812Z,-2.09
2023-03-06T16:17:01.420Z,-2.39
2023-03-06T16:22:04.550Z,-2.62
2023-03-06T16:27:07.210Z,-2.75
2023-03-06T16:32:11.373Z,-3.15
2023-03-06T16:37:14.399Z,-3.20
2023-03-06T16:42:17.811Z,-3.05
2023-03-06T16:47:20.357Z,-2.97
2023-03-06T16:52:23.298Z,-2.97
2023-03-06T16:57:27.309Z,-3.10
2023-03-06T17:02:30.067Z,-3.06
2023-03-06T17:07:34.245Z,-3.24
2023-03-06T17:12:36.968Z,-3.43
2023-03-06T17:17:39.495Z,-3.47
2023-03-06T17:22:46.692Z,-3.53
2023-03-06T17:27:49.453Z,-3.47
2023-03-06T17:32:52.067Z,-3.86
2023-03-06T17:37:54.739Z,-3.65
2023-03-06T17:42:57.392Z,-3.57
2023-03-06T17:48:00.073Z,-3.56
2023-03-06T17:53:02.688Z,-3.57
2023-03-06T17:58:05.182Z,-3.81
2023-03-06T18:03:09.501Z,-3.90
2023-03-06T18:08:12.126Z,-4.07
2023-03-06T18:13:15.368Z,-4.14
2023-03-06T18:18:21.155Z,-4.27
2023-03-06T18:23:24.198Z,-4.38
2023-03-06T18:28:26.766Z,-4.02
2023-03-06T18:33:29.284Z,-4.09
2023-03-06T18:38:32.023Z,-4.21
2023-03-06T18:43:35.989Z,-4.40
2023-03-06T18:48:38.516Z,-4.29
2023-03-06T18:53:41.720Z,-4.27
2023-03-06T18:58:44.980Z,-4.36
2023-03-06T19:03:47.631Z,-4.38
2023-03-06T19:08:50.333Z,-4.22
2023-03-06T19:13:53.381Z,-4.29
2023-03-06T19:18:56.349Z,-4.26
2023-03-06T19:23:59.587Z,-4.25
2023-03-06T19:29:02.118Z,-4.13
2023-03-06T19:34:04.637Z,-4.06
2023-03-06T19:39:07.979Z,-3.95
2023-03-06T19:44:12.330Z,-4.16
2023-03-06T19:49:18.103Z,-4.21
2023-03-06T19:54:23.584Z,-4.25
2023-03-06T19:59:26.154Z,-4.29
2023-03-06T20:04:32.653Z,-4.26
2023-03-06T20:09:36.036Z,-4.24
2023-03-06T20:14:38.757Z,-4.06
2023-03-06T20:19:41.555Z,-3.98
2023-03-06T20:24:44.119Z,-3.86
2023-03-06T20:29:47.030Z,-4.09
2023-03-06T20:34:49.588Z,-4.02
2023-03-06T20:39:52.808Z,-3.97
2023-03-06T20:44:55.376Z,-3.93
2023-03-06T20:49:57.987Z,-3.65
2023-03-06T20:55:00.647Z,-3.56
2023-03-06T21:00:05.189Z,-3.55
2023-03-06T21:05:08.317Z,-3.45
2023-03-06T21:10:11.709Z,-3.41
2023-03-06T21:15:15.456Z,-3.69
2023-03-06T21:20:17.897Z,-3.68
2023-03-06T21:25:20.617Z,-3.94
2023-03-06T21:30:23.127Z,-4.03
2023-03-06T21:35:25.670Z,-3.92
2023-03-06T21:40:28.208Z,-4.00
2023-03-06T21:45:31.693Z,-4.07
2023-03-06T21:50:35.309Z,-3.85
2023-03-06T21:55:41.054Z,-3.53
2023-03-06T22:00:43.724Z,-3.47
2023-03-06T22:05:46.292Z,-3.34
2023-03-06T22:10:49.146Z,-3.26
2023-03-06T22:15:53.610Z,-3.15
2023-03-06T22:20:56.213Z,-3.04
2023-03-06T22:26:05.308Z,-3.02
2023-03-06T22:31:23.947Z,-3.13
2023-03-06T22:36:28.251Z,-3.33
2023-03-06T22:41:31.324Z,-3.31
2023-03-06T22:46:33.978Z,-3.38
2023-03-06T22:51:37.786Z,-3.43
2023-03-06T22:56:40.306Z,-3.29
2023-03-06T23:01:43.360Z,-3.15
2023-03-06T23:06:47.056Z,-3.22
2023-03-06T23:11:50.008Z,-3.27
2023-03-06T23:17:11.134Z,-3.15
2023-03-06T23:22:32.509Z,-3.44
2023-03-06T23:27:53.767Z,-3.64
2023-03-06T23:32:56.493Z,-3.32
2023-03-06T23:38:00.095Z,-3.77
2023-03-06T23:43:03.313Z,-3.53
2023-03-06T23:48:08.085Z,-3.54
2023-03-06T23:53:10.650Z,-3.59
2023-03-06T23:58:14.518Z,-3.53
